Airfield :
LOGIN :

Register | Disclaimer

   EN    FR    IT 

 










Legend :    VFR   Marginal VFR   IFR   Intensive IFR   Very Intensive IFR
Visi :
Ceiling :
>= 8 km
>= 3000ft
5 to 8 km
1000 to 3000 ft
1500m to 5 km
500 to 1000 ft
800 to 1500m
200 to 500 ft
< 800m
< 200 ft
Symbols :   Thunderstorms  Fog  Heavy snow  Heavy precipitations  Wind > 20 kt
SIGMETs :     Misc.  Thunderstorms  Icing  Turbulence  Mountain Waves  Volcanic Ashes







- Airport Elevation : 184 ft
- IATA code : BRU


EBBR - Bruxelles

CURRENT METAR :
  • 170150Z 19007KT 9999 -RA BKN018 05/04 Q1012 NOSIG

EXPIRED METARs :
  • 170120Z 18007KT 9999 BKN018 BKN032 05/04 Q1011 NOSIG
  • 170050Z 18008KT 9999 BKN025 05/03 Q1012 NOSIG
  • 170020Z 17007KT 9999 BKN013 04/03 Q1012 NOSIG
  • 162350Z 16004KT 9999 BKN013 04/03 Q1012 NOSIG
  • 162320Z 17004KT 9000 BKN017 03/02 Q1012 TEMPO 4000 BR

TAF TAF EBBR
Valid from the 17 at 00:00 until the 18 at 06:00 UTC


162300Z 1700/1806 18007KT 8000 SCT007 BKN013
PROB30
TEMPO 1700/1702 BKN005
TEMPO 1703/1706 4000 SHRA BKN006 BKN014TCU
BECMG 1707/1709 24010KT SCT012 BKN025
BECMG 1716/1718 BKN007
PROB30
TEMPO 1722/1806 3000 BR BKN004
BECMG 1803/1805 18010KT
No reported NOTAMs for that airfield.



MET'MAP, your aeronautical weather chart ! - Copyright ORBIFLY December 2007 - Disclaimer

ORBIFLY MET'MAP TEAM :

Programming & Development : Alexandra Zaïnal
Concept & Development : Baudouin d'Aumeries
Co-Development & Prog : Marc-Olivier Méhu
Technical & hardware support : Manuel Goepfert

Contact : metmap@orbifly.com




SOURCES & CREDITS :

   NOAA